sensor_id;sensor_type;location;lat;lon;timestamp;pressure;altitude;pressure_sealevel;temperature;humidity
53270;BME280;39159;45.634;9.420;2023-03-04T00:01:29;99073.53;;;7.44;100.00
53270;BME280;39159;45.634;9.420;2023-03-04T00:03:54;99070.28;;;7.42;100.00
53270;BME280;39159;45.634;9.420;2023-03-04T00:06:20;99058.66;;;7.37;100.00
53270;BME280;39159;45.634;9.420;2023-03-04T00:08:45;99071.66;;;7.40;100.00
53270;BME280;39159;45.634;9.420;2023-03-04T00:11:11;99077.06;;;7.45;100.00
53270;BME280;39159;45.634;9.420;2023-03-04T00:13:36;99080.31;;;7.47;100.00
53270;BME280;39159;45.634;9.420;2023-03-04T00:16:01;99075.22;;;7.40;100.00
53270;BME280;39159;45.634;9.420;2023-03-04T00:18:27;99073.31;;;7.41;100.00
53270;BME280;39159;45.634;9.420;2023-03-04T00:20:52;99066.34;;;7.30;100.00
53270;BME280;39159;45.634;9.420;2023-03-04T00:23:18;99070.97;;;7.24;100.00
53270;BME280;39159;45.634;9.420;2023-03-04T00:25:43;99071.03;;;7.19;100.00
53270;BME280;39159;45.634;9.420;2023-03-04T00:28:09;99075.06;;;7.21;100.00
53270;BME280;39159;45.634;9.420;2023-03-04T00:30:34;99073.97;;;7.22;100.00
53270;BME280;39159;45.634;9.420;2023-03-04T00:32:59;99070.44;;;7.27;100.00
53270;BME280;39159;45.634;9.420;2023-03-04T00:35:25;99067.41;;;7.29;100.00
53270;BME280;39159;45.634;9.420;2023-03-04T00:37:50;99067.41;;;7.29;100.00
53270;BME280;39159;45.634;9.420;2023-03-04T00:40:16;99067.25;;;7.15;100.00
53270;BME280;39159;45.634;9.420;2023-03-04T00:42:41;99068.06;;;7.15;100.00
53270;BME280;39159;45.634;9.420;2023-03-04T00:45:07;99069.44;;;7.13;100.00
53270;BME280;39159;45.634;9.420;2023-03-04T00:47:33;99073.25;;;7.12;100.00
53270;BME280;39159;45.634;9.420;2023-03-04T00:49:58;99071.06;;;7.14;100.00
53270;BME280;39159;45.634;9.420;2023-03-04T00:52:24;99068.63;;;7.12;100.00
53270;BME280;39159;45.634;9.420;2023-03-04T00:54:49;99061.88;;;7.10;100.00
53270;BME280;39159;45.634;9.420;2023-03-04T00:57:15;99073.25;;;7.12;100.00
53270;BME280;39159;45.634;9.420;2023-03-04T00:59:40;99067.53;;;7.13;100.00
53270;BME280;39159;45.634;9.420;2023-03-04T01:02:08;99062.13;;;7.08;100.00
53270;BME280;39159;45.634;9.420;2023-03-04T01:04:33;99062.66;;;7.10;100.00
53270;BME280;39159;45.634;9.420;2023-03-04T01:06:59;99062.94;;;7.09;100.00
53270;BME280;39159;45.634;9.420;2023-03-04T01:09:24;99068.13;;;7.05;100.00
53270;BME280;39159;45.634;9.420;2023-03-04T01:11:51;99057.28;;;7.00;100.00
53270;BME280;39159;45.634;9.420;2023-03-04T01:14:17;99052.44;;;6.97;100.00
53270;BME280;39159;45.634;9.420;2023-03-04T01:16:42;99050.31;;;6.94;100.00
53270;BME280;39159;45.634;9.420;2023-03-04T01:19:08;99043.81;;;6.84;100.00
53270;BME280;39159;45.634;9.420;2023-03-04T01:21:33;99045.78;;;6.79;100.00
53270;BME280;39159;45.634;9.420;2023-03-04T01:23:59;99049.81;;;6.81;100.00
53270;BME280;39159;45.634;9.420;2023-03-04T01:26:24;99043.88;;;6.79;100.00
53270;BME280;39159;45.634;9.420;2023-03-04T01:28:49;99048.75;;;6.77;100.00
53270;BME280;39159;45.634;9.420;2023-03-04T01:31:15;99049.88;;;6.76;100.00
53270;BME280;39159;45.634;9.420;2023-03-04T01:33:40;99049.34;;;6.74;100.00
53270;BME280;39159;45.634;9.420;2023-03-04T01:36:06;99050.72;;;6.72;100.00
53270;BME280;39159;45.634;9.420;2023-03-04T01:38:31;99055.59;;;6.70;100.00
53270;BME280;39159;45.634;9.420;2023-03-04T01:40:57;99051.78;;;6.71;100.00
53270;BME280;39159;45.634;9.420;2023-03-04T01:43:27;99052.59;;;6.71;100.00
53270;BME280;39159;45.634;9.420;2023-03-04T01:45:54;99057.78;;;6.68;100.00
53270;BME280;39159;45.634;9.420;2023-03-04T01:48:24;99059.94;;;6.66;100.00
53270;BME280;39159;45.634;9.420;2023-03-04T01:50:51;99056.44;;;6.60;100.00
53270;BME280;39159;45.634;9.420;2023-03-04T01:53:25;99052.41;;;6.57;100.00
53270;BME280;39159;45.634;9.420;2023-03-04T01:55:53;99053.50;;;6.56;100.00
53270;BME280;39159;45.634;9.420;2023-03-04T01:58:19;99041.06;;;6.50;100.00
53270;BME280;39159;45.634;9.420;2023-03-04T02:00:45;99045.38;;;6.51;100.00
53270;BME280;39159;45.634;9.420;2023-03-04T02:03:13;99046.47;;;6.50;100.00
53270;BME280;39159;45.634;9.420;2023-03-04T02:05:45;99045.94;;;6.48;100.00
53270;BME280;39159;45.634;9.420;2023-03-04T02:08:13;99037.28;;;6.46;100.00
53270;BME280;39159;45.634;9.420;2023-03-04T02:10:41;99035.66;;;6.45;100.00
53270;BME280;39159;45.634;9.420;2023-03-04T02:13:07;99037.81;;;6.48;100.00
53270;BME280;39159;45.634;9.420;2023-03-04T02:15:32;99035.09;;;6.48;100.00
53270;BME280;39159;45.634;9.420;2023-03-04T02:17:58;99029.66;;;6.48;100.00
53270;BME280;39159;45.634;9.420;2023-03-04T02:23:29;99022.34;;;6.49;100.00
53270;BME280;39159;45.634;9.420;2023-03-04T02:26:11;99026.97;;;6.48;100.00
53270;BME280;39159;45.634;9.420;2023-03-04T02:28:37;99021.28;;;6.44;100.00
53270;BME280;39159;45.634;9.420;2023-03-04T02:31:03;99022.94;;;6.40;100.00
53270;BME280;39159;45.634;9.420;2023-03-04T02:33:29;99012.09;;;6.35;100.00
53270;BME280;39159;45.634;9.420;2023-03-04T02:35:54;99009.69;;;6.34;100.00
53270;BME280;39159;45.634;9.420;2023-03-04T02:38:20;99000.22;;;6.26;100.00
53270;BME280;39159;45.634;9.420;2023-03-04T02:40:47;99005.13;;;6.29;100.00
53270;BME280;39159;45.634;9.420;2023-03-04T02:43:16;99002.66;;;6.28;100.00
53270;BME280;39159;45.634;9.420;2023-03-04T02:45:48;99010.25;;;6.26;100.00
53270;BME280;39159;45.634;9.420;2023-03-04T02:48:19;99010.25;;;6.26;100.00
53270;BME280;39159;45.634;9.420;2023-03-04T02:50:48;99007.25;;;6.32;100.00
53270;BME280;39159;45.634;9.420;2023-03-04T02:53:14;99007.28;;;6.27;100.00
53270;BME280;39159;45.634;9.420;2023-03-04T02:55:40;99007.59;;;6.15;100.00
53270;BME280;39159;45.634;9.420;2023-03-04T02:58:10;99009.00;;;6.03;100.00
53270;BME280;39159;45.634;9.420;2023-03-04T03:00:36;99007.66;;;6.05;100.00
53270;BME280;39159;45.634;9.420;2023-03-04T03:03:02;99012.75;;;6.07;100.00
53270;BME280;39159;45.634;9.420;2023-03-04T03:05:30;99017.66;;;6.05;100.00
53270;BME280;39159;45.634;9.420;2023-03-04T03:07:56;99006.31;;;5.97;100.00
53270;BME280;39159;45.634;9.420;2023-03-04T03:10:21;98998.16;;;5.92;100.00
53270;BME280;39159;45.634;9.420;2023-03-04T03:12:47;99003.88;;;5.96;100.00
53270;BME280;39159;45.634;9.420;2023-03-04T03:15:13;98998.97;;;5.93;100.00
53270;BME280;39159;45.634;9.420;2023-03-04T03:17:38;99006.88;;;5.94;100.00
53270;BME280;39159;45.634;9.420;2023-03-04T03:20:04;99008.22;;;5.97;100.00
53270;BME280;39159;45.634;9.420;2023-03-04T03:22:30;99003.06;;;5.95;100.00
53270;BME280;39159;45.634;9.420;2023-03-04T03:24:55;99008.47;;;5.90;100.00
53270;BME280;39159;45.634;9.420;2023-03-04T03:27:21;99007.94;;;5.83;100.00
53270;BME280;39159;45.634;9.420;2023-03-04T03:29:46;98991.19;;;5.76;100.00
53270;BME280;39159;45.634;9.420;2023-03-04T03:32:12;98995.53;;;5.72;100.00
53270;BME280;39159;45.634;9.420;2023-03-04T03:34:37;98994.72;;;5.66;100.00
53270;BME280;39159;45.634;9.420;2023-03-04T03:37:02;98998.53;;;5.65;100.00
53270;BME280;39159;45.634;9.420;2023-03-04T03:39:28;98993.63;;;5.62;100.00
53270;BME280;39159;45.634;9.420;2023-03-04T03:41:53;98992.56;;;5.63;100.00
53270;BME280;39159;45.634;9.420;2023-03-04T03:44:19;98990.13;;;5.61;100.00
53270;BME280;39159;45.634;9.420;2023-03-04T03:46:44;98991.50;;;5.59;100.00
53270;BME280;39159;45.634;9.420;2023-03-04T03:49:11;98982.56;;;5.58;100.00
53270;BME280;39159;45.634;9.420;2023-03-04T03:51:36;98988.50;;;5.55;100.00
53270;BME280;39159;45.634;9.420;2023-03-04T03:54:01;98986.63;;;5.56;100.00
53270;BME280;39159;45.634;9.420;2023-03-04T03:56:27;98990.69;;;5.53;100.00
53270;BME280;39159;45.634;9.420;2023-03-04T03:58:52;98990.69;;;5.53;100.00
53270;BME280;39159;45.634;9.420;2023-03-04T04:01:18;98998.53;;;5.55;100.00
53270;BME280;39159;45.634;9.420;2023-03-04T04:03:43;99001.50;;;5.53;100.00
53270;BME280;39159;45.634;9.420;2023-03-04T04:06:08;98997.75;;;5.49;100.00
53270;BME280;39159;45.634;9.420;2023-03-04T04:08:34;98997.72;;;5.44;100.00
53270;BME280;39159;45.634;9.420;2023-03-04T04:10:59;98987.72;;;5.39;100.00
53270;BME280;39159;45.634;9.420;2023-03-04T04:13:25;98986.38;;;5.37;100.00
53270;BME280;39159;45.634;9.420;2023-03-04T04:15:51;98997.22;;;5.37;100.00
53270;BME280;39159;45.634;9.420;2023-03-04T04:18:16;98997.47;;;5.40;100.00
53270;BME280;39159;45.634;9.420;2023-03-04T04:20:42;99001.00;;;5.41;100.00
53270;BME280;39159;45.634;9.420;2023-03-04T04:23:07;99001.25;;;5.39;100.00
53270;BME280;39159;45.634;9.420;2023-03-04T04:25:33;98992.34;;;5.34;100.00
53270;BME280;39159;45.634;9.420;2023-03-04T04:27:58;98994.22;;;5.28;100.00
53270;BME280;39159;45.634;9.420;2023-03-04T04:30:24;98996.69;;;5.25;100.00
53270;BME280;39159;45.634;9.420;2023-03-04T04:32:50;98993.69;;;5.26;100.00
53270;BME280;39159;45.634;9.420;2023-03-04T04:35:15;98990.16;;;5.31;100.00
53270;BME280;39159;45.634;9.420;2023-03-04T04:37:41;98991.50;;;5.33;100.00
53270;BME280;39159;45.634;9.420;2023-03-04T04:40:06;98993.16;;;5.34;100.00
53270;BME280;39159;45.634;9.420;2023-03-04T04:42:32;98998.81;;;5.33;100.00
53270;BME280;39159;45.634;9.420;2023-03-04T04:44:57;98994.22;;;5.28;100.00
53270;BME280;39159;45.634;9.420;2023-03-04T04:47:23;99001.00;;;5.26;100.00
53270;BME280;39159;45.634;9.420;2023-03-04T04:49:48;99006.41;;;5.26;100.00
53270;BME280;39159;45.634;9.420;2023-03-04T04:52:13;99001.81;;;5.26;100.00
53270;BME280;39159;45.634;9.420;2023-03-04T04:54:39;99000.44;;;5.29;100.00
53270;BME280;39159;45.634;9.420;2023-03-04T04:57:04;99000.19;;;5.30;100.00
53270;BME280;39159;45.634;9.420;2023-03-04T04:59:30;99001.28;;;5.29;100.00
53270;BME280;39159;45.634;9.420;2023-03-04T05:01:55;98995.84;;;5.24;100.00
53270;BME280;39159;45.634;9.420;2023-03-04T05:04:20;99001.25;;;5.24;100.00
53270;BME280;39159;45.634;9.420;2023-03-04T05:06:46;99001.00;;;5.26;100.00
53270;BME280;39159;45.634;9.420;2023-03-04T05:09:12;98992.88;;;5.26;100.00
53270;BME280;39159;45.634;9.420;2023-03-04T05:11:37;98995.59;;;5.26;100.00
53270;BME280;39159;45.634;9.420;2023-03-04T05:14:03;98988.56;;;5.25;100.00
53270;BME280;39159;45.634;9.420;2023-03-04T05:16:28;98987.75;;;5.24;100.00
53270;BME280;39159;45.634;9.420;2023-03-04T05:18:54;98978.81;;;5.24;100.00
53270;BME280;39159;45.634;9.420;2023-03-04T05:21:19;98992.63;;;5.27;100.00
53270;BME280;39159;45.634;9.420;2023-03-04T05:23:44;98991.28;;;5.25;100.00
53270;BME280;39159;45.634;9.420;2023-03-04T05:26:13;98982.63;;;5.23;100.00
53270;BME280;39159;45.634;9.420;2023-03-04T05:28:39;98987.19;;;5.22;100.00
53270;BME280;39159;45.634;9.420;2023-03-04T05:31:05;98985.03;;;5.19;100.00
53270;BME280;39159;45.634;9.420;2023-03-04T05:33:30;98988.00;;;5.17;100.00
53270;BME280;39159;45.634;9.420;2023-03-04T05:35:56;98992.63;;;5.17;100.00
53270;BME280;39159;45.634;9.420;2023-03-04T05:38:22;98987.47;;;5.15;100.00
53270;BME280;39159;45.634;9.420;2023-03-04T05:40:49;98984.75;;;5.15;100.00
53270;BME280;39159;45.634;9.420;2023-03-04T05:43:19;98987.47;;;5.10;100.00
53270;BME280;39159;45.634;9.420;2023-03-04T05:45:48;98994.50;;;5.06;100.00
53270;BME280;39159;45.634;9.420;2023-03-04T05:48:13;98992.63;;;5.02;100.00
53270;BME280;39159;45.634;9.420;2023-03-04T05:50:39;98999.09;;;4.95;100.00
53270;BME280;39159;45.634;9.420;2023-03-04T05:53:04;98996.69;;;4.94;100.00
53270;BME280;39159;45.634;9.420;2023-03-04T05:55:30;98997.22;;;4.91;100.00
53270;BME280;39159;45.634;9.420;2023-03-04T05:57:56;98995.84;;;4.88;100.00
53270;BME280;39159;45.634;9.420;2023-03-04T06:00:22;98995.31;;;4.81;100.00
53270;BME280;39159;45.634;9.420;2023-03-04T06:02:48;99000.97;;;4.80;100.00
53270;BME280;39159;45.634;9.420;2023-03-04T06:05:14;99008.56;;;4.88;100.00
53270;BME280;39159;45.634;9.420;2023-03-04T06:07:41;99002.06;;;4.84;100.00
53270;BME280;39159;45.634;9.420;2023-03-04T06:10:12;99004.22;;;4.87;100.00
53270;BME280;39159;45.634;9.420;2023-03-04T06:12:38;99012.34;;;4.87;100.00
53270;BME280;39159;45.634;9.420;2023-03-04T06:15:04;99000.72;;;4.86;100.00
53270;BME280;39159;45.634;9.420;2023-03-04T06:17:30;99008.31;;;4.89;100.00
53270;BME280;39159;45.634;9.420;2023-03-04T06:19:56;99013.75;;;5.05;100.00
53270;BME280;39159;45.634;9.420;2023-03-04T06:22:21;99008.31;;;5.20;100.00
53270;BME280;39159;45.634;9.420;2023-03-04T06:24:46;99011.81;;;5.41;100.00
53270;BME280;39159;45.634;9.420;2023-03-04T06:27:12;99014.00;;;5.49;100.00
53270;BME280;39159;45.634;9.420;2023-03-04T06:29:38;99019.91;;;5.51;100.00
53270;BME280;39159;45.634;9.420;2023-03-04T06:32:03;99008.56;;;5.54;100.00
53270;BME280;39159;45.634;9.420;2023-03-04T06:34:29;99022.34;;;5.53;100.00
53270;BME280;39159;45.634;9.420;2023-03-04T06:36:54;99017.75;;;5.58;100.00
53270;BME280;39159;45.634;9.420;2023-03-04T06:39:20;99023.72;;;5.60;100.00
53270;BME280;39159;45.634;9.420;2023-03-04T06:41:45;99026.69;;;5.59;100.00
53270;BME280;39159;45.634;9.420;2023-03-04T06:44:11;99030.72;;;5.61;100.00
53270;BME280;39159;45.634;9.420;2023-03-04T06:46:36;99029.66;;;5.63;100.00
53270;BME280;39159;45.634;9.420;2023-03-04T06:49:02;99029.09;;;5.66;100.00
53270;BME280;39159;45.634;9.420;2023-03-04T06:51:28;99031.25;;;5.69;100.00
53270;BME280;39159;45.634;9.420;2023-03-04T06:53:53;99038.56;;;5.68;100.00
53270;BME280;39159;45.634;9.420;2023-03-04T06:56:19;99033.69;;;5.70;100.00
53270;BME280;39159;45.634;9.420;2023-03-04T06:58:45;99035.31;;;5.76;100.00
53270;BME280;39159;45.634;9.420;2023-03-04T07:01:15;99040.72;;;5.81;100.00
53270;BME280;39159;45.634;9.420;2023-03-04T07:03:41;99044.53;;;5.80;100.00
53270;BME280;39159;45.634;9.420;2023-03-04T07:06:09;99040.97;;;5.80;100.00
53270;BME280;39159;45.634;9.420;2023-03-04T07:08:35;99044.75;;;5.99;100.00
53270;BME280;39159;45.634;9.420;2023-03-04T07:11:00;99036.91;;;5.98;100.00
53270;BME280;39159;45.634;9.420;2023-03-04T07:13:25;99042.59;;;6.01;100.00
53270;BME280;39159;45.634;9.420;2023-03-04T07:15:52;99043.66;;;6.06;100.00
53270;BME280;39159;45.634;9.420;2023-03-04T07:18:17;99041.97;;;6.20;100.00
53270;BME280;39159;45.634;9.420;2023-03-04T07:20:42;99045.97;;;6.43;100.00
53270;BME280;39159;45.634;9.420;2023-03-04T07:23:08;99045.28;;;6.67;100.00
53270;BME280;39159;45.634;9.420;2023-03-04T07:25:34;99051.66;;;6.91;100.00
53270;BME280;39159;45.634;9.420;2023-03-04T07:27:59;99044.25;;;7.07;100.00
53270;BME280;39159;45.634;9.420;2023-03-04T07:30:24;99049.75;;;7.31;100.00
53270;BME280;39159;45.634;9.420;2023-03-04T07:32:50;99046.34;;;7.50;100.00
53270;BME280;39159;45.634;9.420;2023-03-04T07:35:15;99048.00;;;7.75;100.00
53270;BME280;39159;45.634;9.420;2023-03-04T07:37:41;99056.47;;;7.97;100.00
53270;BME280;39159;45.634;9.420;2023-03-04T07:40:07;99051.38;;;8.15;100.00
53270;BME280;39159;45.634;9.420;2023-03-04T07:42:33;99046.34;;;8.27;100.00
53270;BME280;39159;45.634;9.420;2023-03-04T07:44:58;99057.38;;;8.36;100.00
53270;BME280;39159;45.634;9.420;2023-03-04T07:47:26;99051.88;;;8.46;99.52
53270;BME280;39159;45.634;9.420;2023-03-04T07:49:51;99050.34;;;8.59;98.63
53270;BME280;39159;45.634;9.420;2023-03-04T07:52:17;99053.44;;;8.71;98.42
53270;BME280;39159;45.634;9.420;2023-03-04T07:54:43;99051.09;;;8.83;96.30
53270;BME280;39159;45.634;9.420;2023-03-04T07:57:08;99054.16;;;8.96;95.42
53270;BME280;39159;45.634;9.420;2023-03-04T07:59:34;99054.03;;;9.06;94.39
53270;BME280;39159;45.634;9.420;2023-03-04T08:01:59;99047.00;;;9.05;93.79
53270;BME280;39159;45.634;9.420;2023-03-04T08:04:25;99046.72;;;9.20;92.56
53270;BME280;39159;45.634;9.420;2023-03-04T08:06:50;99042.31;;;9.57;91.52
53270;BME280;39159;45.634;9.420;2023-03-04T08:09:15;99043.38;;;9.75;88.97
53270;BME280;39159;45.634;9.420;2023-03-04T08:11:41;99051.19;;;10.09;88.05
53270;BME280;39159;45.634;9.420;2023-03-04T08:14:07;99042.63;;;10.30;84.34
53270;BME280;39159;45.634;9.420;2023-03-04T08:16:33;99047.38;;;10.52;84.40
53270;BME280;39159;45.634;9.420;2023-03-04T08:19:00;99051.59;;;10.58;82.39
53270;BME280;39159;45.634;9.420;2023-03-04T08:21:26;99047.28;;;10.43;83.78
53270;BME280;39159;45.634;9.420;2023-03-04T08:23:53;99042.97;;;10.65;81.64
53270;BME280;39159;45.634;9.420;2023-03-04T08:26:30;99039.03;;;10.71;81.93
53270;BME280;39159;45.634;9.420;2023-03-04T08:29:00;99042.56;;;10.71;80.50
53270;BME280;39159;45.634;9.420;2023-03-04T08:31:25;99041.19;;;10.46;81.85
53270;BME280;39159;45.634;9.420;2023-03-04T08:33:51;99042.00;;;10.61;79.73
53270;BME280;39159;45.634;9.420;2023-03-04T08:36:17;99041.34;;;10.77;79.06
53270;BME280;39159;45.634;9.420;2023-03-04T08:38:42;99037.44;;;10.70;78.26
53270;BME280;39159;45.634;9.420;2023-03-04T08:41:08;99027.53;;;10.74;77.66
53270;BME280;39159;45.634;9.420;2023-03-04T08:43:34;99036.78;;;10.87;77.72
53270;BME280;39159;45.634;9.420;2023-03-04T08:45:59;99039.00;;;11.21;77.31
53270;BME280;39159;45.634;9.420;2023-03-04T08:48:25;99040.34;;;11.55;76.53
53270;BME280;39159;45.634;9.420;2023-03-04T08:50:51;99037.72;;;11.72;75.33
53270;BME280;39159;45.634;9.420;2023-03-04T08:53:18;99036.31;;;11.52;75.63
53270;BME280;39159;45.634;9.420;2023-03-04T08:55:44;99039.16;;;11.70;74.38
53270;BME280;39159;45.634;9.420;2023-03-04T08:58:10;99035.25;;;11.62;75.55
53270;BME280;39159;45.634;9.420;2023-03-04T09:00:37;99035.41;;;11.88;75.11
53270;BME280;39159;45.634;9.420;2023-03-04T09:03:04;99033.03;;;11.95;74.34
53270;BME280;39159;45.634;9.420;2023-03-04T09:05:30;99025.72;;;12.13;73.60
53270;BME280;39159;45.634;9.420;2023-03-04T09:07:56;99029.25;;;11.82;73.72
53270;BME280;39159;45.634;9.420;2023-03-04T09:10:22;99030.22;;;11.87;73.47
53270;BME280;39159;45.634;9.420;2023-03-04T09:12:48;99027.19;;;12.19;73.64
53270;BME280;39159;45.634;9.420;2023-03-04T09:15:14;99025.31;;;12.46;71.08
53270;BME280;39159;45.634;9.420;2023-03-04T09:17:39;99028.88;;;12.55;69.52
53270;BME280;39159;45.634;9.420;2023-03-04T09:20:06;99028.88;;;12.47;71.87
53270;BME280;39159;45.634;9.420;2023-03-04T09:22:34;99025.22;;;12.86;69.85
53270;BME280;39159;45.634;9.420;2023-03-04T09:25:00;99019.91;;;13.16;69.90
53270;BME280;39159;45.634;9.420;2023-03-04T09:27:25;99025.88;;;13.35;67.07
53270;BME280;39159;45.634;9.420;2023-03-04T09:29:51;99020.22;;;13.49;66.01
53270;BME280;39159;45.634;9.420;2023-03-04T09:32:16;99017.63;;;13.61;65.89
53270;BME280;39159;45.634;9.420;2023-03-04T09:34:42;99014.59;;;13.19;66.27
53270;BME280;39159;45.634;9.420;2023-03-04T09:37:07;99012.00;;;13.49;64.92
53270;BME280;39159;45.634;9.420;2023-03-04T09:39:33;99013.13;;;13.57;63.17
53270;BME280;39159;45.634;9.420;2023-03-04T09:41:59;99012.63;;;13.55;64.46
53270;BME280;39159;45.634;9.420;2023-03-04T09:44:31;99003.25;;;13.56;65.64
53270;BME280;39159;45.634;9.420;2023-03-04T09:47:02;99002.75;;;13.62;65.70
53270;BME280;39159;45.634;9.420;2023-03-04T09:49:29;98996.59;;;13.83;63.85
53270;BME280;39159;45.634;9.420;2023-03-04T09:52:06;99008.91;;;13.59;64.04
53270;BME280;39159;45.634;9.420;2023-03-04T09:57:52;99002.97;;;13.96;63.00
53270;BME280;39159;45.634;9.420;2023-03-04T10:00:38;98999.38;;;13.74;61.74
53270;BME280;39159;45.634;9.420;2023-03-04T10:05:51;98987.47;;;14.00;61.12
53270;BME280;39159;45.634;9.420;2023-03-04T10:11:31;99001.56;;;14.28;60.60
53270;BME280;39159;45.634;9.420;2023-03-04T10:16:51;98981.63;;;14.40;60.07
53270;BME280;39159;45.634;9.420;2023-03-04T10:19:30;98990.69;;;14.31;60.62
53270;BME280;39159;45.634;9.420;2023-03-04T10:22:01;98982.22;;;14.16;62.77
53270;BME280;39159;45.634;9.420;2023-03-04T10:24:38;98981.06;;;14.55;58.98
53270;BME280;39159;45.634;9.420;2023-03-04T10:27:06;98974.69;;;14.84;59.07
53270;BME280;39159;45.634;9.420;2023-03-04T10:29:35;98974.50;;;14.89;58.55
53270;BME280;39159;45.634;9.420;2023-03-04T10:32:00;98978.00;;;14.99;57.24
53270;BME280;39159;45.634;9.420;2023-03-04T10:34:26;98979.84;;;14.65;57.71
53270;BME280;39159;45.634;9.420;2023-03-04T10:37:01;98976.84;;;14.58;58.40
53270;BME280;39159;45.634;9.420;2023-03-04T10:39:33;98960.44;;;14.40;58.36
53270;BME280;39159;45.634;9.420;2023-03-04T10:44:50;98964.31;;;14.90;59.52
53270;BME280;39159;45.634;9.420;2023-03-04T10:47:15;98959.34;;;15.04;57.86
53270;BME280;39159;45.634;9.420;2023-03-04T10:50:02;98954.53;;;15.01;58.34
53270;BME280;39159;45.634;9.420;2023-03-04T10:52:28;98959.59;;;15.11;58.64
53270;BME280;39159;45.634;9.420;2023-03-04T10:54:57;98950.69;;;15.15;58.50
53270;BME280;39159;45.634;9.420;2023-03-04T11:00:38;98950.78;;;14.85;58.57
53270;BME280;39159;45.634;9.420;2023-03-04T11:02:46;98938.69;;;14.98;57.57
53270;BME280;39159;45.634;9.420;2023-03-04T11:05:18;98948.03;;;14.85;59.76
53270;BME280;39159;45.634;9.420;2023-03-04T11:07:52;98944.28;;;15.23;57.15
53270;BME280;39159;45.634;9.420;2023-03-04T11:10:25;98935.97;;;15.44;55.45
53270;BME280;39159;45.634;9.420;2023-03-04T11:15:27;98932.28;;;15.73;53.32
53270;BME280;39159;45.634;9.420;2023-03-04T11:17:59;98927.81;;;15.93;52.86
53270;BME280;39159;45.634;9.420;2023-03-04T11:20:41;98925.50;;;15.83;52.63
53270;BME280;39159;45.634;9.420;2023-03-04T11:23:18;98921.25;;;15.61;53.91
53270;BME280;39159;45.634;9.420;2023-03-04T11:25:51;98913.31;;;15.59;54.04
53270;BME280;39159;45.634;9.420;2023-03-04T11:28:25;98910.94;;;15.82;53.15
53270;BME280;39159;45.634;9.420;2023-03-04T11:31:20;98908.88;;;16.04;53.96
53270;BME280;39159;45.634;9.420;2023-03-04T11:34:14;98910.47;;;16.05;52.41
53270;BME280;39159;45.634;9.420;2023-03-04T11:37:06;98901.00;;;15.90;54.17
53270;BME280;39159;45.634;9.420;2023-03-04T11:44:50;98885.44;;;16.34;50.73
53270;BME280;39159;45.634;9.420;2023-03-04T11:50:14;98874.34;;;15.94;52.33
53270;BME280;39159;45.634;9.420;2023-03-04T11:55:33;98880.38;;;16.36;52.31
53270;BME280;39159;45.634;9.420;2023-03-04T12:01:08;98865.75;;;16.08;53.15
53270;BME280;39159;45.634;9.420;2023-03-04T12:06:32;98857.44;;;16.32;51.89
53270;BME280;39159;45.634;9.420;2023-03-04T12:17:44;98835.34;;;16.04;53.00
53270;BME280;39159;45.634;9.420;2023-03-04T12:25:54;98829.88;;;15.80;51.10
53270;BME280;39159;45.634;9.420;2023-03-04T12:28:23;98819.34;;;15.32;52.56
53270;BME280;39159;45.634;9.420;2023-03-04T12:44:30;98788.28;;;15.57;53.71
53270;BME280;39159;45.634;9.420;2023-03-04T12:47:22;98784.28;;;15.54;52.75
53270;BME280;39159;45.634;9.420;2023-03-04T12:53:07;98778.19;;;15.61;52.95
53270;BME280;39159;45.634;9.420;2023-03-04T12:55:37;98764.66;;;15.68;53.88
53270;BME280;39159;45.634;9.420;2023-03-04T12:58:05;98765.91;;;15.83;53.52
53270;BME280;39159;45.634;9.420;2023-03-04T13:00:52;98760.19;;;16.16;52.79
53270;BME280;39159;45.634;9.420;2023-03-04T13:03:30;98759.41;;;16.44;51.15
53270;BME280;39159;45.634;9.420;2023-03-04T13:08:57;98759.84;;;16.46;51.78
53270;BME280;39159;45.634;9.420;2023-03-04T13:16:43;98753.69;;;16.36;51.36
53270;BME280;39159;45.634;9.420;2023-03-04T13:24:50;98748.84;;;16.46;52.33
53270;BME280;39159;45.634;9.420;2023-03-04T13:27:45;98749.88;;;16.13;51.99
53270;BME280;39159;45.634;9.420;2023-03-04T13:38:33;98726.44;;;15.26;55.10
53270;BME280;39159;45.634;9.420;2023-03-04T13:43:39;98724.34;;;15.47;55.30
53270;BME280;39159;45.634;9.420;2023-03-04T13:49:03;98711.22;;;15.69;55.62
53270;BME280;39159;45.634;9.420;2023-03-04T13:51:43;98717.41;;;15.78;53.93
53270;BME280;39159;45.634;9.420;2023-03-04T13:57:18;98714.16;;;15.48;53.25
53270;BME280;39159;45.634;9.420;2023-03-04T13:59:46;98706.22;;;15.46;53.45
53270;BME280;39159;45.634;9.420;2023-03-04T14:02:14;98703.69;;;15.53;52.78
53270;BME280;39159;45.634;9.420;2023-03-04T14:04:45;98702.94;;;15.41;53.25
53270;BME280;39159;45.634;9.420;2023-03-04T14:09:52;98705.47;;;15.21;55.24
53270;BME280;39159;45.634;9.420;2023-03-04T14:12:18;98701.56;;;14.98;55.62
53270;BME280;39159;45.634;9.420;2023-03-04T14:14:47;98687.50;;;14.99;55.38
53270;BME280;39159;45.634;9.420;2023-03-04T14:17:17;98692.75;;;14.92;56.89
53270;BME280;39159;45.634;9.420;2023-03-04T14:19:45;98688.41;;;14.79;56.76
53270;BME280;39159;45.634;9.420;2023-03-04T14:22:27;98681.53;;;14.85;56.33
53270;BME280;39159;45.634;9.420;2023-03-04T14:25:20;98677.88;;;14.93;56.21
53270;BME280;39159;45.634;9.420;2023-03-04T14:27:46;98672.84;;;14.95;56.09
53270;BME280;39159;45.634;9.420;2023-03-04T14:30:25;98678.78;;;14.97;56.64
53270;BME280;39159;45.634;9.420;2023-03-04T14:32:52;98667.31;;;14.83;56.90
53270;BME280;39159;45.634;9.420;2023-03-04T14:35:28;98668.03;;;14.92;56.43
53270;BME280;39159;45.634;9.420;2023-03-04T14:38:04;98667.13;;;14.88;55.74
53270;BME280;39159;45.634;9.420;2023-03-04T14:40:38;98661.84;;;14.83;55.34
53270;BME280;39159;45.634;9.420;2023-03-04T14:43:15;98660.91;;;14.66;56.39
53270;BME280;39159;45.634;9.420;2023-03-04T14:45:43;98654.28;;;14.67;56.41
53270;BME280;39159;45.634;9.420;2023-03-04T14:48:20;98651.53;;;14.80;57.28